createdAt,value
2019-02-17T00:01:04.428Z,984.57
2019-02-17T00:02:14.346Z,984.59
2019-02-17T00:03:24.320Z,984.59
2019-02-17T00:04:34.242Z,984.6
2019-02-17T00:05:44.165Z,984.61
2019-02-17T00:06:54.134Z,984.66
2019-02-17T00:08:04.049Z,984.66
2019-02-17T00:09:13.968Z,984.77
2019-02-17T00:10:23.895Z,984.79
2019-02-17T00:11:33.882Z,984.81
2019-02-17T00:12:43.545Z,984.8
2019-02-17T00:13:53.458Z,984.85
2019-02-17T00:15:03.481Z,984.9
2019-02-17T00:16:13.408Z,984.88
2019-02-17T00:17:23.337Z,984.87
2019-02-17T00:18:33.280Z,984.87
2019-02-17T00:19:43.208Z,984.78
2019-02-17T00:20:53.224Z,984.81
2019-02-17T00:22:03.144Z,984.76
2019-02-17T00:23:13.057Z,984.78
2019-02-17T00:24:22.973Z,984.8
2019-02-17T00:25:32.888Z,984.81
2019-02-17T00:26:42.814Z,984.8
2019-02-17T00:27:52.733Z,984.81
2019-02-17T00:29:02.662Z,984.85
2019-02-17T00:30:12.583Z,984.86
2019-02-17T00:31:22.501Z,984.84
2019-02-17T00:32:32.418Z,984.87
2019-02-17T00:33:42.338Z,984.91
2019-02-17T00:34:52.265Z,984.88
2019-02-17T00:36:02.186Z,984.88
2019-02-17T00:37:12.106Z,984.85
2019-02-17T00:38:22.035Z,984.83
2019-02-17T00:39:31.954Z,984.84
2019-02-17T00:40:41.883Z,984.78
2019-02-17T00:41:51.804Z,984.74
2019-02-17T00:43:01.743Z,984.77
2019-02-17T00:44:11.769Z,984.77
2019-02-17T00:45:21.752Z,984.79
2019-02-17T00:46:31.666Z,984.86
2019-02-17T00:47:41.592Z,984.89
2019-02-17T00:48:51.524Z,984.87
2019-02-17T00:50:01.496Z,984.88
2019-02-17T00:51:11.416Z,984.88
2019-02-17T00:52:21.337Z,984.82
2019-02-17T00:53:31.254Z,984.85
2019-02-17T00:54:41.177Z,984.89
2019-02-17T00:55:51.193Z,984.9
2019-02-17T00:57:01.114Z,984.89
2019-02-17T00:58:11.045Z,984.86
2019-02-17T00:59:20.962Z,984.87
2019-02-17T01:00:30.903Z,984.84
2019-02-17T01:01:40.885Z,984.85
2019-02-17T01:02:50.801Z,984.81
2019-02-17T01:04:00.721Z,984.85
2019-02-17T01:05:10.640Z,984.84
2019-02-17T01:06:20.386Z,984.89
2019-02-17T01:07:30.411Z,984.93
2019-02-17T01:08:40.089Z,984.91
2019-02-17T01:09:50.015Z,984.88
2019-02-17T01:10:59.937Z,984.86
2019-02-17T01:12:09.854Z,984.86
2019-02-17T01:13:19.882Z,984.89
2019-02-17T01:14:29.798Z,984.98
2019-02-17T01:15:39.719Z,985.01
2019-02-17T01:16:49.644Z,984.96
2019-02-17T01:17:59.569Z,984.93
2019-02-17T01:19:09.347Z,984.91
2019-02-17T01:20:19.270Z,984.88
2019-02-17T01:21:29.193Z,984.91
2019-02-17T01:22:39.110Z,984.86
2019-02-17T01:23:49.033Z,984.88
2019-02-17T01:24:58.708Z,984.9
2019-02-17T01:26:08.637Z,984.93
2019-02-17T01:27:18.575Z,984.95
2019-02-17T01:28:28.497Z,984.96
2019-02-17T01:29:38.424Z,984.93
2019-02-17T01:30:48.098Z,984.95
2019-02-17T01:31:58.015Z,984.99
2019-02-17T01:33:07.932Z,984.99
2019-02-17T01:34:17.856Z,984.98
2019-02-17T01:35:27.532Z,984.96
2019-02-17T01:36:37.203Z,985
2019-02-17T01:37:47.123Z,984.97
2019-02-17T01:38:58.755Z,985
2019-02-17T01:40:08.679Z,985.04
2019-02-17T01:41:18.600Z,985.05
2019-02-17T01:42:28.616Z,985.06
2019-02-17T01:43:38.539Z,985.09
2019-02-17T01:44:48.471Z,985.1
2019-02-17T01:45:58.385Z,985.08
2019-02-17T01:47:08.303Z,985.1
2019-02-17T01:48:18.322Z,985.02
2019-02-17T01:49:28.243Z,985.03
2019-02-17T01:50:38.166Z,984.99
2019-02-17T01:51:47.832Z,984.98
2019-02-17T01:52:57.752Z,985
2019-02-17T01:54:07.792Z,984.99
2019-02-17T01:55:17.771Z,985.01
2019-02-17T01:56:27.753Z,984.98
2019-02-17T01:57:37.754Z,984.96
2019-02-17T01:58:47.746Z,984.98
2019-02-17T01:59:57.825Z,984.93
2019-02-17T02:01:08.002Z,984.99
2019-02-17T02:02:20.054Z,984.95
2019-02-17T02:03:30.047Z,984.89
2019-02-17T02:04:40.013Z,984.9
2019-02-17T02:05:50.047Z,984.9
2019-02-17T02:07:00.021Z,984.88
2019-02-17T02:08:09.973Z,984.94
2019-02-17T02:09:19.952Z,984.97
2019-02-17T02:10:29.913Z,984.98
2019-02-17T02:11:39.975Z,984.99
2019-02-17T02:12:49.650Z,985.03
2019-02-17T02:13:59.606Z,985.02
2019-02-17T02:15:11.648Z,985.06
2019-02-17T02:16:21.602Z,985.04
2019-02-17T02:17:31.704Z,985.05
2019-02-17T02:18:41.710Z,985.04
2019-02-17T02:19:51.638Z,985.05
2019-02-17T02:21:01.560Z,985.05
2019-02-17T02:22:11.473Z,985.04
2019-02-17T02:23:21.491Z,985.08
2019-02-17T02:24:31.429Z,985.13
2019-02-17T02:25:41.345Z,985.11
2019-02-17T02:26:51.331Z,985.1
2019-02-17T02:28:01.255Z,985.1
2019-02-17T02:29:11.232Z,985.11
2019-02-17T02:30:21.162Z,985.12
2019-02-17T02:31:31.143Z,985.12
2019-02-17T02:32:41.133Z,985.15
2019-02-17T02:33:51.060Z,985.17
2019-02-17T02:35:01.078Z,985.16
2019-02-17T02:36:10.747Z,985.15
2019-02-17T02:37:20.674Z,985.16
2019-02-17T02:38:30.364Z,985.15
2019-02-17T02:39:40.292Z,985.16
2019-02-17T02:40:49.962Z,985.18
2019-02-17T02:41:59.892Z,985.24
2019-02-17T02:43:09.828Z,985.28
2019-02-17T02:44:19.765Z,985.27
2019-02-17T02:45:29.694Z,985.24
2019-02-17T02:46:39.627Z,985.18
2019-02-17T02:47:49.570Z,985.22
2019-02-17T02:48:59.498Z,985.27
2019-02-17T02:50:09.425Z,985.31
2019-02-17T02:51:19.454Z,985.32
2019-02-17T02:52:29.407Z,985.37
2019-02-17T02:53:39.342Z,985.3
2019-02-17T02:54:49.271Z,985.33
2019-02-17T02:55:58.959Z,985.32
2019-02-17T02:57:08.881Z,985.23
2019-02-17T02:58:18.802Z,985.3
2019-02-17T02:59:28.803Z,985.34
2019-02-17T03:00:38.732Z,985.34
2019-02-17T03:01:48.657Z,985.38
2019-02-17T03:02:58.576Z,985.35
2019-02-17T03:04:08.608Z,985.37
2019-02-17T03:05:18.582Z,985.33
2019-02-17T03:06:28.502Z,985.34
2019-02-17T03:07:38.447Z,985.34
2019-02-17T03:08:48.373Z,985.31
2019-02-17T03:09:58.405Z,985.27
2019-02-17T03:11:08.338Z,985.29
2019-02-17T03:12:18.270Z,985.3
2019-02-17T03:13:28.205Z,985.3
2019-02-17T03:14:38.125Z,985.32
2019-02-17T03:15:48.059Z,985.34
2019-02-17T03:17:00.475Z,985.33
2019-02-17T03:18:10.679Z,985.34
2019-02-17T03:19:20.601Z,985.35
2019-02-17T03:20:30.529Z,985.38
2019-02-17T03:21:40.504Z,985.41
2019-02-17T03:22:50.193Z,985.41
2019-02-17T03:24:00.118Z,985.44
2019-02-17T03:25:10.133Z,985.43
2019-02-17T03:26:20.062Z,985.43
2019-02-17T03:27:29.985Z,985.48
2019-02-17T03:28:39.900Z,985.47
2019-02-17T03:29:49.849Z,985.52
2019-02-17T03:31:11.985Z,985.56
2019-02-17T03:32:21.942Z,985.52
2019-02-17T03:33:31.901Z,985.56
2019-02-17T03:34:41.846Z,985.6
2019-02-17T03:35:51.769Z,985.62
2019-02-17T03:37:01.696Z,985.74
2019-02-17T03:38:11.725Z,985.76
2019-02-17T03:39:21.143Z,985.81
2019-02-17T03:40:31.063Z,985.84
2019-02-17T03:41:40.992Z,985.84
2019-02-17T03:42:50.927Z,985.88
2019-02-17T03:44:00.885Z,985.84
2019-02-17T03:45:10.830Z,985.86
2019-02-17T03:46:20.763Z,985.79
2019-02-17T03:47:30.683Z,985.79
2019-02-17T03:48:40.601Z,985.72
2019-02-17T03:49:50.633Z,985.7
2019-02-17T03:51:00.735Z,985.67
2019-02-17T03:52:10.658Z,985.66
2019-02-17T03:53:20.586Z,985.72
2019-02-17T03:54:30.259Z,985.71
2019-02-17T03:55:40.284Z,985.78
2019-02-17T03:56:50.196Z,985.74
2019-02-17T03:58:00.118Z,985.77
2019-02-17T03:59:09.824Z,985.81
2019-02-17T04:00:19.754Z,985.78
2019-02-17T04:01:29.738Z,985.79
2019-02-17T04:02:39.661Z,985.76
2019-02-17T04:03:49.340Z,985.73
2019-02-17T04:04:59.358Z,985.76
2019-02-17T04:06:09.283Z,985.8
2019-02-17T04:07:19.320Z,985.78
2019-02-17T04:08:29.266Z,985.8
2019-02-17T04:09:39.191Z,985.76
2019-02-17T04:10:49.119Z,985.75
2019-02-17T04:11:59.033Z,985.8
2019-02-17T04:13:09.002Z,985.75
2019-02-17T04:14:18.929Z,985.73
2019-02-17T04:15:28.848Z,985.68
2019-02-17T04:16:38.774Z,985.62
2019-02-17T04:17:48.705Z,985.63
2019-02-17T04:18:58.784Z,985.58
2019-02-17T04:20:08.701Z,985.59
2019-02-17T04:21:18.650Z,985.6
2019-02-17T04:22:28.657Z,985.61
2019-02-17T04:23:38.597Z,985.62
2019-02-17T04:24:48.653Z,985.6
2019-02-17T04:25:58.598Z,985.67
2019-02-17T04:27:08.533Z,985.64
2019-02-17T04:28:18.211Z,985.65
2019-02-17T04:29:28.135Z,985.66
2019-02-17T04:30:38.128Z,985.62
2019-02-17T04:31:48.258Z,985.66
2019-02-17T04:32:58.192Z,985.68
2019-02-17T04:34:08.137Z,985.68
2019-02-17T04:35:18.075Z,985.67
2019-02-17T04:36:28.048Z,985.68
2019-02-17T04:37:37.994Z,985.66
2019-02-17T04:38:47.927Z,985.64
2019-02-17T04:39:57.844Z,985.66
2019-02-17T04:41:07.968Z,985.65
2019-02-17T04:42:18.016Z,985.73
2019-02-17T04:43:27.940Z,985.69
2019-02-17T04:44:37.865Z,985.68
2019-02-17T04:45:47.781Z,985.67
2019-02-17T04:46:57.757Z,985.72
2019-02-17T04:48:07.780Z,985.73
2019-02-17T04:49:17.701Z,985.72
2019-02-17T04:50:27.679Z,985.77
2019-02-17T04:51:37.615Z,985.78
2019-02-17T04:52:47.541Z,985.82
2019-02-17T04:53:57.473Z,985.84
2019-02-17T04:55:07.395Z,985.83
2019-02-17T04:56:17.317Z,985.83
2019-02-17T04:57:27.240Z,985.86
2019-02-17T04:58:37.163Z,985.84
2019-02-17T04:59:47.084Z,985.85
2019-02-17T05:00:57.021Z,985.83
2019-02-17T05:02:06.865Z,985.85
2019-02-17T05:03:16.793Z,985.87
2019-02-17T05:04:26.848Z,985.87
2019-02-17T05:05:36.871Z,985.89
2019-02-17T05:06:46.799Z,985.89
2019-02-17T05:07:56.766Z,985.94
2019-02-17T05:09:06.734Z,985.92
2019-02-17T05:10:16.668Z,985.95
2019-02-17T05:11:26.698Z,985.91
2019-02-17T05:12:36.621Z,985.9
2019-02-17T05:13:46.554Z,985.86
2019-02-17T05:14:56.487Z,985.89
2019-02-17T05:16:06.169Z,985.88
2019-02-17T05:17:16.218Z,985.98
2019-02-17T05:18:26.137Z,985.96
2019-02-17T05:19:36.073Z,986.02
2019-02-17T05:20:45.766Z,986.03
2019-02-17T05:21:55.695Z,986.03
2019-02-17T05:23:05.629Z,986.01
2019-02-17T05:24:15.559Z,986.04
2019-02-17T05:25:25.487Z,986.02
2019-02-17T05:26:35.423Z,986.01
2019-02-17T05:27:45.092Z,986.01
2019-02-17T05:28:56.546Z,986.02
2019-02-17T05:30:06.723Z,985.99
2019-02-17T05:31:16.669Z,985.96
2019-02-17T05:32:26.608Z,985.99
2019-02-17T05:33:36.535Z,986.05
2019-02-17T05:34:46.458Z,986.07
2019-02-17T05:35:56.377Z,986.1
2019-02-17T05:37:06.302Z,986.1
2019-02-17T05:38:16.239Z,986.13
2019-02-17T05:39:26.165Z,986.13
2019-02-17T05:40:36.646Z,986.08
2019-02-17T05:41:46.743Z,986.11
2019-02-17T05:42:56.672Z,986.15
2019-02-17T05:44:06.621Z,986.15
2019-02-17T05:45:16.563Z,986.19
2019-02-17T05:46:26.583Z,986.18
2019-02-17T05:47:36.508Z,986.22
2019-02-17T05:48:46.433Z,986.19
2019-02-17T05:49:56.366Z,986.25
2019-02-17T05:51:06.351Z,986.27
2019-02-17T05:52:16.394Z,986.35
2019-02-17T05:53:26.342Z,986.34
2019-02-17T05:54:36.266Z,986.35
2019-02-17T05:55:46.207Z,986.31
2019-02-17T05:56:56.142Z,986.28
2019-02-17T05:58:06.169Z,986.25
2019-02-17T05:59:16.088Z,986.21
2019-02-17T06:00:26.012Z,986.23
2019-02-17T06:01:35.951Z,986.2
2019-02-17T06:02:45.881Z,986.18
2019-02-17T06:03:55.907Z,986.19
2019-02-17T06:05:05.590Z,986.19
2019-02-17T06:06:15.531Z,986.22
2019-02-17T06:07:25.457Z,986.22
2019-02-17T06:08:35.390Z,986.24
2019-02-17T06:09:45.410Z,986.2
2019-02-17T06:10:55.335Z,986.24
2019-02-17T06:12:05.266Z,986.28
2019-02-17T06:13:15.201Z,986.32
2019-02-17T06:14:25.161Z,986.32
2019-02-17T06:15:35.142Z,986.31
2019-02-17T06:16:45.104Z,986.32
2019-02-17T06:17:55.030Z,986.37
2019-02-17T06:19:04.951Z,986.37
2019-02-17T06:20:14.901Z,986.35
2019-02-17T06:21:24.837Z,986.32
2019-02-17T06:22:34.756Z,986.35
2019-02-17T06:23:44.682Z,986.35
2019-02-17T06:24:54.613Z,986.35
2019-02-17T06:26:04.544Z,986.35
2019-02-17T06:27:14.479Z,986.35
2019-02-17T06:28:24.144Z,986.37
2019-02-17T06:29:34.070Z,986.37
2019-02-17T06:30:44.005Z,986.35
2019-02-17T06:31:53.929Z,986.34
2019-02-17T06:33:03.694Z,986.35
2019-02-17T06:34:13.617Z,986.33
2019-02-17T06:35:23.540Z,986.36
2019-02-17T06:36:33.467Z,986.32
2019-02-17T06:37:46.120Z,986.32
2019-02-17T06:38:56.090Z,986.31
2019-02-17T06:40:06.013Z,986.37
2019-02-17T06:41:15.934Z,986.35
2019-02-17T06:42:25.877Z,986.36
2019-02-17T06:43:35.808Z,986.39
2019-02-17T06:44:45.831Z,986.4
2019-02-17T06:45:55.760Z,986.42
2019-02-17T06:47:05.694Z,986.45
2019-02-17T06:48:15.625Z,986.48
2019-02-17T06:49:25.543Z,986.51
2019-02-17T06:50:35.510Z,986.53
2019-02-17T06:51:45.439Z,986.56
2019-02-17T06:52:55.448Z,986.68
2019-02-17T06:54:05.369Z,986.68
2019-02-17T06:55:15.285Z,986.68
2019-02-17T06:56:25.203Z,986.69
2019-02-17T06:57:35.143Z,986.75
2019-02-17T06:58:45.062Z,986.74
2019-02-17T06:59:54.979Z,986.78
2019-02-17T07:01:04.905Z,986.82
2019-02-17T07:02:24.810Z,986.79
2019-02-17T07:03:34.733Z,986.8
2019-02-17T07:04:44.925Z,986.79
2019-02-17T07:05:56.656Z,986.86
2019-02-17T07:07:06.805Z,986.84
2019-02-17T07:08:16.803Z,986.85
2019-02-17T07:09:26.836Z,986.85
2019-02-17T07:10:36.507Z,986.85
2019-02-17T07:11:46.427Z,986.88
2019-02-17T07:12:57.441Z,986.9
2019-02-17T07:14:07.370Z,986.93
2019-02-17T07:15:17.286Z,986.95
2019-02-17T07:16:26.967Z,986.97
2019-02-17T07:17:36.887Z,986.98
2019-02-17T07:18:46.842Z,986.98
2019-02-17T07:19:56.873Z,987
2019-02-17T07:21:06.792Z,987.01
2019-02-17T07:22:16.712Z,987.05
2019-02-17T07:23:26.641Z,987.04
2019-02-17T07:24:36.580Z,987.06
2019-02-17T07:25:46.301Z,987.1
2019-02-17T07:26:56.223Z,987.13
2019-02-17T07:28:06.153Z,987.12
2019-02-17T07:29:16.816Z,987.17
2019-02-17T07:30:26.861Z,987.22
2019-02-17T07:31:36.882Z,987.25
2019-02-17T07:32:46.810Z,987.27
2019-02-17T07:33:56.735Z,987.3
2019-02-17T07:35:06.675Z,987.31
2019-02-17T07:36:16.606Z,987.29
2019-02-17T07:37:33.247Z,987.25
2019-02-17T07:38:43.669Z,987.31
2019-02-17T07:39:53.595Z,987.35
2019-02-17T07:41:03.515Z,987.33
2019-02-17T07:42:13.453Z,987.36
2019-02-17T07:43:23.381Z,987.39
2019-02-17T07:44:33.303Z,987.37
2019-02-17T07:45:45.628Z,987.43
2019-02-17T07:46:55.546Z,987.43
2019-02-17T07:48:05.468Z,987.46
2019-02-17T07:49:15.487Z,987.49
2019-02-17T07:50:25.411Z,987.52
2019-02-17T07:51:35.328Z,987.54
2019-02-17T07:52:45.261Z,987.57
2019-02-17T07:53:55.188Z,987.55
2019-02-17T07:55:05.208Z,987.57
2019-02-17T07:56:15.122Z,987.56
2019-02-17T07:57:25.041Z,987.57
2019-02-17T07:58:34.957Z,987.59
2019-02-17T07:59:44.874Z,987.61
2019-02-17T08:00:54.797Z,987.6
2019-02-17T08:02:04.731Z,987.62
2019-02-17T08:03:14.425Z,987.63
2019-02-17T08:04:24.344Z,987.66
2019-02-17T08:05:34.326Z,987.64
2019-02-17T08:06:44.298Z,987.66
2019-02-17T08:07:54.219Z,987.65
2019-02-17T08:09:04.145Z,987.63
2019-02-17T08:10:14.060Z,987.62
2019-02-17T08:11:23.738Z,987.59
2019-02-17T08:12:33.752Z,987.56
2019-02-17T08:13:43.672Z,987.53
2019-02-17T08:14:53.590Z,987.56
2019-02-17T08:16:03.512Z,987.52
2019-02-17T08:17:13.460Z,987.5
2019-02-17T08:18:23.489Z,987.53
2019-02-17T08:19:33.412Z,987.52
2019-02-17T08:20:43.336Z,987.52
2019-02-17T08:21:53.256Z,987.5
2019-02-17T08:23:03.173Z,987.47
2019-02-17T08:24:13.192Z,987.45
2019-02-17T08:25:23.111Z,987.45
2019-02-17T08:26:33.048Z,987.44
2019-02-17T08:27:42.977Z,987.46
2019-02-17T08:28:52.910Z,987.39
2019-02-17T08:30:02.885Z,987.4
2019-02-17T08:31:12.808Z,987.39
2019-02-17T08:32:22.473Z,987.32
2019-02-17T08:33:32.392Z,987.37
2019-02-17T08:34:42.309Z,987.37
2019-02-17T08:35:53.837Z,987.3
2019-02-17T08:37:03.768Z,987.32
2019-02-17T08:38:13.687Z,987.31
2019-02-17T08:39:23.635Z,987.35
2019-02-17T08:40:33.562Z,987.38
2019-02-17T08:41:43.540Z,987.39
2019-02-17T08:42:53.458Z,987.38
2019-02-17T08:44:03.402Z,987.37
2019-02-17T08:45:13.359Z,987.41
2019-02-17T08:46:23.276Z,987.39
2019-02-17T08:47:33.246Z,987.39
2019-02-17T08:48:43.236Z,987.35
2019-02-17T08:49:53.155Z,987.34
2019-02-17T08:51:03.175Z,987.34
2019-02-17T08:52:13.099Z,987.33
2019-02-17T08:53:23.129Z,987.37
2019-02-17T08:54:33.048Z,987.36
2019-02-17T08:55:42.963Z,987.37
2019-02-17T08:56:52.890Z,987.33
2019-02-17T08:58:02.830Z,987.33
2019-02-17T08:59:12.852Z,987.36
2019-02-17T09:00:22.777Z,987.33
2019-02-17T09:01:32.694Z,987.35
2019-02-17T09:02:43.356Z,987.42
2019-02-17T09:03:53.323Z,987.41
2019-02-17T09:05:03.343Z,987.42
2019-02-17T09:06:13.271Z,987.35
2019-02-17T09:07:23.200Z,987.4
2019-02-17T09:08:33.123Z,987.38
2019-02-17T09:09:43.110Z,987.41
2019-02-17T09:10:53.081Z,987.42
2019-02-17T09:12:03.006Z,987.44
2019-02-17T09:13:12.929Z,987.46
2019-02-17T09:14:23.875Z,987.49
2019-02-17T09:15:33.826Z,987.48
2019-02-17T09:16:43.796Z,987.44
2019-02-17T09:17:53.726Z,987.48
2019-02-17T09:19:03.644Z,987.43
2019-02-17T09:20:13.562Z,987.39
2019-02-17T09:21:23.484Z,987.38
2019-02-17T09:22:33.205Z,987.38
2019-02-17T09:23:43.136Z,987.41
2019-02-17T09:24:53.058Z,987.37
2019-02-17T09:26:03.162Z,987.42
2019-02-17T09:27:12.646Z,987.38
2019-02-17T09:28:22.618Z,987.35
2019-02-17T09:29:32.547Z,987.35
2019-02-17T09:30:42.467Z,987.3
2019-02-17T09:31:52.387Z,987.29
2019-02-17T09:33:04.541Z,987.25
2019-02-17T09:34:14.462Z,987.24
2019-02-17T09:35:24.384Z,987.25
2019-02-17T09:36:34.303Z,987.26
2019-02-17T09:37:44.236Z,987.22
2019-02-17T09:38:54.165Z,987.28
2019-02-17T09:40:04.098Z,987.24
2019-02-17T09:41:14.021Z,987.28
2019-02-17T09:42:23.942Z,987.27
2019-02-17T09:43:33.859Z,987.27
2019-02-17T09:44:46.113Z,987.27
2019-02-17T09:45:56.032Z,987.26
2019-02-17T09:47:05.957Z,987.21
2019-02-17T09:48:15.874Z,987.22
2019-02-17T09:49:25.800Z,987.25
2019-02-17T09:50:35.721Z,987.2
2019-02-17T09:51:45.641Z,987.24
2019-02-17T09:52:55.576Z,987.26
2019-02-17T09:54:05.500Z,987.28
2019-02-17T09:55:15.463Z,987.3
2019-02-17T09:56:25.390Z,987.29
2019-02-17T09:57:35.412Z,987.31
2019-02-17T09:58:45.354Z,987.29
2019-02-17T09:59:55.268Z,987.26
2019-02-17T10:01:05.197Z,987.25
2019-02-17T10:02:15.123Z,987.25
2019-02-17T10:03:34.273Z,987.24
2019-02-17T10:04:44.198Z,987.27
2019-02-17T10:05:54.128Z,987.24
2019-02-17T10:07:04.048Z,987.28
2019-02-17T10:08:13.963Z,987.27
2019-02-17T10:09:23.936Z,987.26
2019-02-17T10:10:33.860Z,987.29
2019-02-17T10:11:43.779Z,987.34
2019-02-17T10:12:53.706Z,987.33
2019-02-17T10:14:04.248Z,987.35
2019-02-17T10:15:14.277Z,987.26
2019-02-17T10:16:24.216Z,987.23
2019-02-17T10:17:34.134Z,987.27
2019-02-17T10:18:44.067Z,987.22
2019-02-17T10:19:53.997Z,987.22
2019-02-17T10:21:04.016Z,987.28
2019-02-17T10:22:13.941Z,987.3
2019-02-17T10:23:23.611Z,987.33
2019-02-17T10:24:33.536Z,987.33
2019-02-17T10:25:43.463Z,987.35
2019-02-17T10:26:53.392Z,987.33
2019-02-17T10:28:03.320Z,987.33
2019-02-17T10:29:13.255Z,987.39
2019-02-17T10:30:23.179Z,987.41
2019-02-17T10:31:33.097Z,987.54
2019-02-17T10:32:43.074Z,987.51
2019-02-17T10:33:53.006Z,987.55
2019-02-17T10:35:02.930Z,987.59
2019-02-17T10:36:12.857Z,987.59
2019-02-17T10:37:22.784Z,987.56
2019-02-17T10:38:32.806Z,987.56
2019-02-17T10:39:42.732Z,987.54
2019-02-17T10:40:52.685Z,987.53
2019-02-17T10:42:02.612Z,987.56
2019-02-17T10:43:12.537Z,987.54
2019-02-17T10:44:22.575Z,987.52
2019-02-17T10:45:32.498Z,987.56
2019-02-17T10:46:42.422Z,987.51
2019-02-17T10:47:52.350Z,987.45
2019-02-17T10:49:02.280Z,987.4
2019-02-17T10:50:12.363Z,987.4
2019-02-17T10:51:22.289Z,987.47
2019-02-17T10:52:34.149Z,987.47
2019-02-17T10:53:44.070Z,987.49
2019-02-17T10:54:54.002Z,987.47
2019-02-17T10:56:03.983Z,987.51
2019-02-17T10:57:13.907Z,987.49
2019-02-17T10:58:23.836Z,987.47
2019-02-17T10:59:33.756Z,987.44
2019-02-17T11:00:43.680Z,987.48
2019-02-17T11:01:53.703Z,987.51
2019-02-17T11:03:03.627Z,987.52
2019-02-17T11:04:13.557Z,987.5
2019-02-17T11:05:23.479Z,987.51
2019-02-17T11:06:33.401Z,987.53
2019-02-17T11:07:43.379Z,987.52
2019-02-17T11:08:53.361Z,987.56
2019-02-17T11:10:03.284Z,987.57
2019-02-17T11:11:13.208Z,987.54
2019-02-17T11:12:23.649Z,987.53
2019-02-17T11:13:33.434Z,987.5
2019-02-17T11:14:43.363Z,987.45
2019-02-17T11:15:53.284Z,987.4
2019-02-17T11:17:03.210Z,987.35
2019-02-17T11:18:13.142Z,987.32
2019-02-17T11:19:23.171Z,987.3
2019-02-17T11:20:33.133Z,987.33
2019-02-17T11:21:43.070Z,987.33
2019-02-17T11:22:53.205Z,987.33
2019-02-17T11:24:03.124Z,987.35
2019-02-17T11:25:13.149Z,987.28
2019-02-17T11:26:23.083Z,987.31
2019-02-17T11:27:33.037Z,987.33
2019-02-17T11:28:42.961Z,987.32
2019-02-17T11:29:53.169Z,987.28
2019-02-17T11:31:03.210Z,987.32
2019-02-17T11:32:13.130Z,987.31
2019-02-17T11:33:23.053Z,987.32
2019-02-17T11:34:32.975Z,987.33
2019-02-17T11:35:42.904Z,987.31
2019-02-17T11:36:52.952Z,987.22
2019-02-17T11:38:02.883Z,987.23
2019-02-17T11:39:12.806Z,987.18
2019-02-17T11:40:22.738Z,987.21
2019-02-17T11:41:32.670Z,987.2
2019-02-17T11:42:42.638Z,987.16
2019-02-17T11:43:52.561Z,987.17
2019-02-17T11:45:02.484Z,987.16
2019-02-17T11:46:12.429Z,987.05
2019-02-17T11:47:22.399Z,987.02
2019-02-17T11:48:32.426Z,987.06
2019-02-17T11:49:42.357Z,987.02
2019-02-17T11:50:52.284Z,986.95
2019-02-17T11:52:02.205Z,986.93
2019-02-17T11:53:12.141Z,986.9
2019-02-17T11:54:22.166Z,986.87
2019-02-17T11:55:32.091Z,986.81
2019-02-17T11:56:42.015Z,986.75
2019-02-17T11:57:51.951Z,986.64
2019-02-17T11:59:01.897Z,986.52
2019-02-17T12:00:11.879Z,986.49
2019-02-17T12:01:21.810Z,986.59
2019-02-17T12:02:31.735Z,986.64
2019-02-17T12:03:41.687Z,986.68
2019-02-17T12:04:51.609Z,986.77
2019-02-17T12:06:01.586Z,986.8
2019-02-17T12:07:11.532Z,986.81
2019-02-17T12:08:21.455Z,986.79
2019-02-17T12:09:31.384Z,986.75
2019-02-17T12:10:41.058Z,986.74
2019-02-17T12:11:51.084Z,986.72
2019-02-17T12:13:01.006Z,986.7
2019-02-17T12:14:10.930Z,986.69
2019-02-17T12:15:20.887Z,986.64
2019-02-17T12:16:36.848Z,986.68
2019-02-17T12:17:47.295Z,986.68
2019-02-17T12:18:59.677Z,986.66
2019-02-17T12:20:09.600Z,986.7
2019-02-17T12:21:19.522Z,986.72
2019-02-17T12:22:29.445Z,986.75
2019-02-17T12:23:39.419Z,986.75
2019-02-17T12:24:49.338Z,986.77
2019-02-17T12:25:59.260Z,986.83
2019-02-17T12:27:09.185Z,986.84
2019-02-17T12:28:19.108Z,986.85
2019-02-17T12:29:29.138Z,986.77
2019-02-17T12:30:41.166Z,986.7
2019-02-17T12:31:50.838Z,986.68
2019-02-17T12:33:03.004Z,986.64
2019-02-17T12:34:24.833Z,986.67
2019-02-17T12:35:34.863Z,986.63
2019-02-17T12:36:44.799Z,986.63
2019-02-17T12:37:54.737Z,986.63
2019-02-17T12:39:04.681Z,986.63
2019-02-17T12:40:15.715Z,986.6
2019-02-17T12:41:25.648Z,986.63
2019-02-17T12:42:35.570Z,986.68
2019-02-17T12:43:45.498Z,986.65
2019-02-17T12:44:57.127Z,986.6
2019-02-17T12:46:07.241Z,986.61
2019-02-17T12:47:17.167Z,986.66
2019-02-17T12:48:27.109Z,986.61
2019-02-17T12:49:37.034Z,986.58
2019-02-17T12:50:47.083Z,986.58
2019-02-17T12:51:57.185Z,986.58
2019-02-17T12:53:07.109Z,986.59
2019-02-17T12:54:17.037Z,986.58
2019-02-17T12:55:36.351Z,986.63
2019-02-17T12:56:46.275Z,986.43
2019-02-17T12:57:56.326Z,986.39
2019-02-17T12:59:06.272Z,986.31
2019-02-17T13:00:16.206Z,986.26
2019-02-17T13:01:26.132Z,986.21
2019-02-17T13:02:36.066Z,986.13
2019-02-17T13:03:46.100Z,986.11
2019-02-17T13:04:56.024Z,986.23
2019-02-17T13:06:06.021Z,986.22
2019-02-17T13:07:15.994Z,986.17
2019-02-17T13:08:25.932Z,986.11
2019-02-17T13:09:35.876Z,986.05
2019-02-17T13:10:45.806Z,986.06
2019-02-17T13:11:55.496Z,986.07
2019-02-17T13:13:05.442Z,986.01
2019-02-17T13:14:15.371Z,985.99
2019-02-17T13:15:25.399Z,985.93
2019-02-17T13:16:35.078Z,985.89
2019-02-17T13:17:45.004Z,985.94
2019-02-17T13:18:55.653Z,985.97
2019-02-17T13:20:05.576Z,985.93
2019-02-17T13:21:15.608Z,985.96
2019-02-17T13:22:25.535Z,985.96
2019-02-17T13:23:35.209Z,986.02
2019-02-17T13:24:45.133Z,986.03
2019-02-17T13:25:55.055Z,986.1
2019-02-17T13:27:05.080Z,986.15
2019-02-17T13:28:15.006Z,986.18
2019-02-17T13:29:24.939Z,986.17
2019-02-17T13:30:34.867Z,986.15
2019-02-17T13:31:44.806Z,986.13
2019-02-17T13:32:54.787Z,986.16
2019-02-17T13:34:04.709Z,986.17
2019-02-17T13:35:14.647Z,986.16
2019-02-17T13:36:24.582Z,986.18
2019-02-17T13:37:34.503Z,986.22
2019-02-17T13:38:44.536Z,986.22
2019-02-17T13:39:54.476Z,986.27
2019-02-17T13:41:04.410Z,986.32
2019-02-17T13:42:14.338Z,986.37
2019-02-17T13:43:24.263Z,986.34
2019-02-17T13:44:34.191Z,986.36
2019-02-17T13:45:44.818Z,986.33
2019-02-17T13:46:54.903Z,986.32
2019-02-17T13:48:04.833Z,986.29
2019-02-17T13:49:14.854Z,986.28
2019-02-17T13:50:24.826Z,986.39
2019-02-17T13:51:34.750Z,986.38
2019-02-17T13:52:44.677Z,986.31
2019-02-17T13:53:54.617Z,986.24
2019-02-17T13:55:04.549Z,986.21
2019-02-17T13:56:14.599Z,986.23
2019-02-17T13:57:24.523Z,986.11
2019-02-17T13:58:34.462Z,986.04
2019-02-17T13:59:44.398Z,986.09
2019-02-17T14:00:54.322Z,986.18
2019-02-17T14:02:04.351Z,986.24
2019-02-17T14:03:14.274Z,986.25
2019-02-17T14:04:24.204Z,986.15
2019-02-17T14:05:34.147Z,986.13
2019-02-17T14:06:44.077Z,986.15
2019-02-17T14:07:54.050Z,986.27
2019-02-17T14:09:03.990Z,986.29
2019-02-17T14:10:13.919Z,986.28
2019-02-17T14:11:23.604Z,986.26
2019-02-17T14:12:33.525Z,986.25
2019-02-17T14:13:43.390Z,986.31
2019-02-17T14:14:53.553Z,986.29
2019-02-17T14:16:03.487Z,986.29
2019-02-17T14:17:13.417Z,986.25
2019-02-17T14:18:23.340Z,986.23
2019-02-17T14:19:33.370Z,986.28
2019-02-17T14:20:43.298Z,986.29
2019-02-17T14:21:53.226Z,986.26
2019-02-17T14:23:03.159Z,986.26
2019-02-17T14:24:13.097Z,986.33
2019-02-17T14:25:23.028Z,986.44
2019-02-17T14:26:32.951Z,986.41
2019-02-17T14:27:42.885Z,986.42
2019-02-17T14:28:52.809Z,986.46
2019-02-17T14:30:02.734Z,986.43
2019-02-17T14:31:12.716Z,986.35
2019-02-17T14:32:22.644Z,986.32
2019-02-17T14:33:32.574Z,986.31
2019-02-17T14:34:42.494Z,986.31
2019-02-17T14:35:52.415Z,986.3
2019-02-17T14:37:02.392Z,986.3